createdAt,value
2022-11-25T00:02:25.129Z,8.52
2022-11-25T00:07:30.106Z,8.52
2022-11-25T00:12:27.962Z,8.46
2022-11-25T00:17:21.771Z,8.49
2022-11-25T00:27:26.953Z,8.39
2022-11-25T00:32:24.769Z,8.52
2022-11-25T00:37:18.282Z,8.52
2022-11-25T00:42:22.109Z,8.57
2022-11-25T00:47:30.649Z,8.55
2022-11-25T00:52:31.885Z,8.61
2022-11-25T00:57:38.380Z,8.53
2022-11-25T01:02:41.047Z,8.63
2022-11-25T01:07:32.915Z,8.64
2022-11-25T01:12:29.011Z,8.68
2022-11-25T01:17:27.716Z,8.69
2022-11-25T01:22:24.300Z,8.71
2022-11-25T01:27:19.370Z,8.67
2022-11-25T01:32:14.478Z,8.72
2022-11-25T01:37:26.722Z,8.60
2022-11-25T01:42:27.076Z,8.75
2022-11-25T01:47:24.816Z,8.77
2022-11-25T01:52:33.144Z,8.73
2022-11-25T01:57:33.952Z,8.86
2022-11-25T02:02:44.474Z,8.86
2022-11-25T02:07:44.558Z,8.84
2022-11-25T02:12:39.333Z,8.90
2022-11-25T02:17:34.912Z,8.83
2022-11-25T02:22:30.578Z,8.91
2022-11-25T02:27:25.782Z,8.91
2022-11-25T02:32:23.723Z,8.89
2022-11-25T02:37:21.233Z,8.84
2022-11-25T02:42:17.983Z,8.78
2022-11-25T02:47:15.534Z,8.86
2022-11-25T02:52:08.421Z,8.73
2022-11-25T02:57:01.118Z,8.73
2022-11-25T03:01:51.927Z,8.79
2022-11-25T03:06:46.925Z,8.72
2022-11-25T03:11:51.008Z,8.78
2022-11-25T03:16:46.033Z,8.78
2022-11-25T03:21:55.406Z,8.76
2022-11-25T03:26:50.795Z,8.77
2022-11-25T03:31:46.781Z,8.74
2022-11-25T03:36:39.623Z,8.71
2022-11-25T03:41:36.908Z,8.59
2022-11-25T03:46:39.158Z,8.63
2022-11-25T03:51:38.238Z,8.57
2022-11-25T03:56:46.404Z,8.52
2022-11-25T04:01:44.309Z,8.41
2022-11-25T04:06:42.063Z,8.34
2022-11-25T04:11:48.680Z,8.03
2022-11-25T04:16:44.263Z,8.30
2022-11-25T04:21:43.600Z,8.26
2022-11-25T04:26:37.816Z,8.25
2022-11-25T04:31:30.613Z,8.07
2022-11-25T04:36:26.934Z,8.19
2022-11-25T04:41:24.479Z,8.17
2022-11-25T04:46:23.736Z,8.12
2022-11-25T04:51:15.295Z,8.09
2022-11-25T04:56:15.166Z,8.07
2022-11-25T05:01:14.456Z,8.09
2022-11-25T05:06:13.267Z,8.05
2022-11-25T05:11:04.908Z,8.11
2022-11-25T05:16:03.663Z,8.13
2022-11-25T05:20:59.737Z,8.13
2022-11-25T05:26:03.345Z,8.14
2022-11-25T05:36:15.675Z,8.08
2022-11-25T05:41:11.323Z,7.99
2022-11-25T05:46:16.196Z,8.00
2022-11-25T05:51:12.058Z,7.95
2022-11-25T05:56:12.075Z,7.87
2022-11-25T06:01:40.957Z,7.85
2022-11-25T06:06:36.582Z,7.77
2022-11-25T06:11:29.585Z,7.75
2022-11-25T06:16:29.819Z,7.69
2022-11-25T06:21:49.472Z,7.64
2022-11-25T06:26:39.790Z,7.53
2022-11-25T06:31:30.067Z,7.58
2022-11-25T06:36:43.532Z,7.45
2022-11-25T06:41:40.196Z,7.47
2022-11-25T06:46:35.988Z,7.42
2022-11-25T06:51:39.225Z,7.37
2022-11-25T06:56:31.085Z,7.33
2022-11-25T07:01:29.087Z,7.28
2022-11-25T07:06:27.629Z,7.28
2022-11-25T07:11:36.503Z,7.29
2022-11-25T07:16:43.847Z,7.27
2022-11-25T07:21:41.803Z,7.34
2022-11-25T07:26:41.625Z,7.23
2022-11-25T07:31:45.084Z,7.34
2022-11-25T07:36:42.046Z,7.40
2022-11-25T07:41:40.738Z,7.35
2022-11-25T07:46:34.585Z,7.40
2022-11-25T07:51:32.737Z,7.44
2022-11-25T07:56:24.109Z,7.44
2022-11-25T08:01:19.050Z,7.52
2022-11-25T08:06:14.302Z,7.62
2022-11-25T08:11:15.474Z,7.70
2022-11-25T08:16:17.915Z,7.75
2022-11-25T08:21:14.796Z,7.83
2022-11-25T08:26:12.470Z,7.85
2022-11-25T08:31:11.499Z,7.92
2022-11-25T08:36:04.070Z,7.97
2022-11-25T08:40:56.109Z,8.00
2022-11-25T08:45:59.055Z,8.00
2022-11-25T08:50:55.862Z,8.01
2022-11-25T08:55:50.437Z,8.04
2022-11-25T09:01:00.509Z,8.10
2022-11-25T09:06:05.297Z,8.12
2022-11-25T09:11:05.187Z,8.19
2022-11-25T09:16:01.522Z,8.19
2022-11-25T09:20:59.929Z,8.24
2022-11-25T09:26:01.780Z,8.39
2022-11-25T09:30:56.268Z,8.52
2022-11-25T09:35:56.842Z,9.08
2022-11-25T09:41:19.869Z,9.59
2022-11-25T09:46:38.952Z,10.04
2022-11-25T09:51:42.241Z,10.40
2022-11-25T09:56:47.924Z,10.72
2022-11-25T10:01:49.418Z,10.97
2022-11-25T10:06:55.983Z,11.26
2022-11-25T10:12:00.143Z,11.35
2022-11-25T10:16:58.610Z,11.29
2022-11-25T10:21:51.958Z,11.18
2022-11-25T10:26:50.673Z,11.19
2022-11-25T10:31:51.191Z,11.23
2022-11-25T10:36:44.171Z,11.19
2022-11-25T10:41:47.077Z,11.14
2022-11-25T10:52:06.024Z,11.23
2022-11-25T10:56:57.824Z,11.21
2022-11-25T11:01:51.525Z,11.07
2022-11-25T11:06:43.946Z,11.24
2022-11-25T11:11:40.659Z,11.33
2022-11-25T11:16:40.483Z,11.38
2022-11-25T11:21:42.225Z,11.47
2022-11-25T11:26:39.095Z,11.52
2022-11-25T11:31:46.739Z,11.57
2022-11-25T11:36:57.740Z,11.61
2022-11-25T11:42:06.515Z,11.60
2022-11-25T11:47:18.166Z,11.60
2022-11-25T11:52:25.110Z,11.70
2022-11-25T11:57:32.020Z,11.76
2022-11-25T12:02:48.536Z,11.80
2022-11-25T12:07:53.994Z,11.81
2022-11-25T12:13:07.515Z,11.79
2022-11-25T12:18:05.605Z,11.79
2022-11-25T12:23:05.748Z,11.75
2022-11-25T12:28:05.248Z,12.01
2022-11-25T12:33:12.867Z,11.93
2022-11-25T12:38:21.937Z,11.80
2022-11-25T12:43:36.397Z,11.81
2022-11-25T12:48:37.107Z,11.80
2022-11-25T12:53:52.351Z,11.86
2022-11-25T12:59:22.401Z,11.88
2022-11-25T13:04:46.188Z,11.82
2022-11-25T13:10:16.478Z,11.71
2022-11-25T13:15:38.039Z,11.85
2022-11-25T13:21:10.138Z,12.03
2022-11-25T13:26:49.599Z,12.21
2022-11-25T13:32:12.938Z,12.17
2022-11-25T13:37:36.124Z,12.19
2022-11-25T13:42:43.182Z,12.13
2022-11-25T13:47:43.842Z,12.02
2022-11-25T13:52:48.267Z,11.98
2022-11-25T13:57:53.100Z,12.01
2022-11-25T14:02:52.744Z,12.02
2022-11-25T14:07:54.788Z,12.04
2022-11-25T14:13:28.064Z,11.94
2022-11-25T14:24:32.036Z,12.01
2022-11-25T14:29:30.702Z,11.88
2022-11-25T14:34:47.606Z,11.78
2022-11-25T14:39:56.205Z,11.65
2022-11-25T14:45:01.935Z,11.60
2022-11-25T14:50:26.606Z,11.48
2022-11-25T14:55:17.428Z,11.34
2022-11-25T15:00:17.438Z,11.32
2022-11-25T15:05:28.869Z,11.15
2022-11-25T15:10:48.505Z,11.17
2022-11-25T15:15:49.520Z,11.07
2022-11-25T15:20:54.029Z,10.95
2022-11-25T15:26:02.669Z,10.85
2022-11-25T15:31:10.978Z,10.74
2022-11-25T15:36:07.881Z,10.64
2022-11-25T15:41:12.280Z,10.56
2022-11-25T15:46:08.132Z,10.49
2022-11-25T15:51:07.272Z,10.38
2022-11-25T15:56:11.023Z,10.27
2022-11-25T16:01:25.343Z,10.23
2022-11-25T16:06:29.932Z,10.04
2022-11-25T16:11:25.985Z,10.07
2022-11-25T16:16:33.811Z,9.99
2022-11-25T16:21:30.770Z,9.93
2022-11-25T16:26:35.799Z,9.86
2022-11-25T16:31:32.269Z,9.77
2022-11-25T16:36:27.820Z,9.69
2022-11-25T16:41:33.510Z,9.66
2022-11-25T16:46:25.641Z,9.58
2022-11-25T16:51:21.998Z,9.52
2022-11-25T16:56:18.597Z,9.44
2022-11-25T17:01:17.699Z,9.40
2022-11-25T17:06:22.161Z,9.35
2022-11-25T17:11:18.673Z,9.32
2022-11-25T17:16:14.032Z,9.31
2022-11-25T17:21:12.259Z,9.24
2022-11-25T17:26:04.279Z,9.25
2022-11-25T17:30:55.524Z,9.28
2022-11-25T17:35:52.368Z,9.28
2022-11-25T17:40:47.207Z,9.24
2022-11-25T17:45:46.229Z,9.14
2022-11-25T17:50:37.001Z,9.11
2022-11-25T17:55:29.703Z,9.08
2022-11-25T18:00:28.628Z,9.04
2022-11-25T18:05:26.009Z,8.91
2022-11-25T18:10:22.698Z,8.92
2022-11-25T18:15:20.263Z,8.82
2022-11-25T18:20:24.476Z,8.69
2022-11-25T18:25:28.484Z,8.63
2022-11-25T18:30:41.025Z,8.60
2022-11-25T18:35:40.007Z,8.50
2022-11-25T18:40:39.107Z,8.45
2022-11-25T18:45:41.432Z,8.38
2022-11-25T18:50:37.028Z,8.31
2022-11-25T18:55:37.156Z,8.25
2022-11-25T19:00:41.204Z,8.21
2022-11-25T19:05:36.565Z,8.13
2022-11-25T19:10:34.123Z,8.09
2022-11-25T19:15:35.085Z,8.03
2022-11-25T19:20:30.145Z,7.97
2022-11-25T19:25:23.300Z,7.88
2022-11-25T19:30:24.967Z,7.83
2022-11-25T19:35:23.350Z,7.75
2022-11-25T19:40:27.031Z,7.75
2022-11-25T19:45:20.375Z,7.69
2022-11-25T19:50:18.702Z,7.66
2022-11-25T19:55:18.267Z,7.64
2022-11-25T20:00:16.055Z,7.54
2022-11-25T20:05:15.038Z,7.51
2022-11-25T20:10:24.803Z,7.46
2022-11-25T20:15:31.577Z,7.41
2022-11-25T20:20:30.346Z,7.32
2022-11-25T20:25:36.937Z,7.26
2022-11-25T20:30:32.192Z,7.19
2022-11-25T20:35:31.346Z,7.04
2022-11-25T20:40:29.075Z,7.07
2022-11-25T20:45:23.339Z,7.02
2022-11-25T20:50:17.330Z,7.01
2022-11-25T20:55:19.095Z,6.95
2022-11-25T21:00:18.582Z,6.92
2022-11-25T21:05:12.774Z,6.89
2022-11-25T21:10:23.879Z,6.84
2022-11-25T21:15:17.173Z,6.82
2022-11-25T21:20:10.761Z,6.79
2022-11-25T21:25:15.828Z,6.75
2022-11-25T21:30:22.859Z,6.69
2022-11-25T21:35:25.672Z,6.70
2022-11-25T21:40:37.430Z,6.69
2022-11-25T21:45:36.259Z,6.63
2022-11-25T21:50:33.452Z,6.72
2022-11-25T21:55:31.663Z,6.66
2022-11-25T22:00:29.677Z,6.74
2022-11-25T22:05:31.150Z,6.67
2022-11-25T22:10:30.357Z,6.62
2022-11-25T22:15:31.219Z,6.57
2022-11-25T22:20:30.910Z,6.55
2022-11-25T22:25:30.399Z,6.49
2022-11-25T22:30:30.021Z,6.43
2022-11-25T22:35:22.501Z,6.39
2022-11-25T22:40:17.504Z,6.36
2022-11-25T22:45:08.906Z,6.34
2022-11-25T22:50:12.242Z,6.30
2022-11-25T22:55:03.374Z,6.26
2022-11-25T23:00:00.839Z,6.23
2022-11-25T23:04:55.796Z,6.21
2022-11-25T23:09:50.605Z,6.16
2022-11-25T23:14:58.182Z,6.05
2022-11-25T23:19:48.385Z,6.05
2022-11-25T23:24:40.530Z,5.94
2022-11-25T23:29:39.721Z,5.97
2022-11-25T23:34:34.638Z,5.96
2022-11-25T23:39:30.311Z,5.82
2022-11-25T23:44:32.215Z,5.91
2022-11-25T23:49:34.065Z,5.91
2022-11-25T23:54:25.925Z,5.93
2022-11-25T23:59:20.615Z,5.96
